sensor_id;sensor_type;location;lat;lon;timestamp;temperature;humidity
41481;DHT22;27217;51.220;5.308;2022-11-15T00:00:17;10.50;99.90
41481;DHT22;27217;51.220;5.308;2022-11-15T00:02:43;10.50;99.90
41481;DHT22;27217;51.220;5.308;2022-11-15T00:05:09;10.70;99.90
41481;DHT22;27217;51.220;5.308;2022-11-15T00:07:34;10.80;99.90
41481;DHT22;27217;51.220;5.308;2022-11-15T00:10:00;10.80;99.90
41481;DHT22;27217;51.220;5.308;2022-11-15T00:12:28;10.70;99.90
41481;DHT22;27217;51.220;5.308;2022-11-15T00:14:54;10.70;99.90
41481;DHT22;27217;51.220;5.308;2022-11-15T00:17:19;10.80;99.90
41481;DHT22;27217;51.220;5.308;2022-11-15T00:19:45;10.60;99.90
41481;DHT22;27217;51.220;5.308;2022-11-15T00:22:11;10.70;99.90
41481;DHT22;27217;51.220;5.308;2022-11-15T00:24:37;10.80;99.90
41481;DHT22;27217;51.220;5.308;2022-11-15T00:27:02;11.10;99.90
41481;DHT22;27217;51.220;5.308;2022-11-15T00:29:28;10.80;99.90
41481;DHT22;27217;51.220;5.308;2022-11-15T00:31:54;10.80;99.90
41481;DHT22;27217;51.220;5.308;2022-11-15T00:34:19;10.90;99.90
41481;DHT22;27217;51.220;5.308;2022-11-15T00:36:45;11.00;99.90
41481;DHT22;27217;51.220;5.308;2022-11-15T00:39:10;11.00;99.90
41481;DHT22;27217;51.220;5.308;2022-11-15T00:41:36;10.80;99.90
41481;DHT22;27217;51.220;5.308;2022-11-15T00:44:02;10.80;99.90
41481;DHT22;27217;51.220;5.308;2022-11-15T00:46:28;10.80;99.90
41481;DHT22;27217;51.220;5.308;2022-11-15T00:48:54;11.10;99.90
41481;DHT22;27217;51.220;5.308;2022-11-15T00:51:19;10.90;99.90
41481;DHT22;27217;51.220;5.308;2022-11-15T00:53:45;11.10;99.90
41481;DHT22;27217;51.220;5.308;2022-11-15T00:56:11;10.90;99.90
41481;DHT22;27217;51.220;5.308;2022-11-15T00:58:37;10.90;99.90
41481;DHT22;27217;51.220;5.308;2022-11-15T01:01:08;11.00;99.90
41481;DHT22;27217;51.220;5.308;2022-11-15T01:03:35;11.00;99.90
41481;DHT22;27217;51.220;5.308;2022-11-15T01:06:01;11.00;99.90
41481;DHT22;27217;51.220;5.308;2022-11-15T01:08:26;11.10;99.90
41481;DHT22;27217;51.220;5.308;2022-11-15T01:10:53;11.00;99.90
41481;DHT22;27217;51.220;5.308;2022-11-15T01:13:18;11.00;99.90
41481;DHT22;27217;51.220;5.308;2022-11-15T01:15:44;10.90;99.90
41481;DHT22;27217;51.220;5.308;2022-11-15T01:18:10;10.90;99.90
41481;DHT22;27217;51.220;5.308;2022-11-15T01:20:42;10.90;99.90
41481;DHT22;27217;51.220;5.308;2022-11-15T01:23:09;10.90;99.90
41481;DHT22;27217;51.220;5.308;2022-11-15T01:25:35;10.90;99.90
41481;DHT22;27217;51.220;5.308;2022-11-15T01:28:01;11.00;99.90
41481;DHT22;27217;51.220;5.308;2022-11-15T01:30:26;11.10;99.90
41481;DHT22;27217;51.220;5.308;2022-11-15T01:32:52;11.10;99.90
41481;DHT22;27217;51.220;5.308;2022-11-15T01:35:18;11.30;99.90
41481;DHT22;27217;51.220;5.308;2022-11-15T01:37:43;11.40;99.90
41481;DHT22;27217;51.220;5.308;2022-11-15T01:40:09;11.20;99.90
41481;DHT22;27217;51.220;5.308;2022-11-15T01:42:35;11.10;99.90
41481;DHT22;27217;51.220;5.308;2022-11-15T01:45:01;11.30;99.90
41481;DHT22;27217;51.220;5.308;2022-11-15T01:47:37;11.30;99.90
41481;DHT22;27217;51.220;5.308;2022-11-15T01:50:15;11.60;99.90
41481;DHT22;27217;51.220;5.308;2022-11-15T01:52:41;11.50;99.90
41481;DHT22;27217;51.220;5.308;2022-11-15T01:55:13;11.30;99.90
41481;DHT22;27217;51.220;5.308;2022-11-15T01:57:41;11.40;99.90
41481;DHT22;27217;51.220;5.308;2022-11-15T02:00:09;11.50;99.90
41481;DHT22;27217;51.220;5.308;2022-11-15T02:02:36;11.30;99.90
41481;DHT22;27217;51.220;5.308;2022-11-15T02:05:03;11.20;99.90
41481;DHT22;27217;51.220;5.308;2022-11-15T02:07:29;11.40;99.90
41481;DHT22;27217;51.220;5.308;2022-11-15T02:09:58;11.50;99.90
41481;DHT22;27217;51.220;5.308;2022-11-15T02:12:25;11.50;99.90
41481;DHT22;27217;51.220;5.308;2022-11-15T02:14:53;11.60;99.90
41481;DHT22;27217;51.220;5.308;2022-11-15T02:20:07;11.80;99.90
41481;DHT22;27217;51.220;5.308;2022-11-15T02:30:52;11.90;99.90
41481;DHT22;27217;51.220;5.308;2022-11-15T02:36:23;12.00;99.90
41481;DHT22;27217;51.220;5.308;2022-11-15T02:39:07;11.90;99.90
41481;DHT22;27217;51.220;5.308;2022-11-15T02:41:54;11.80;99.90
41481;DHT22;27217;51.220;5.308;2022-11-15T02:44:27;11.90;99.90
41481;DHT22;27217;51.220;5.308;2022-11-15T02:47:04;11.80;99.90
41481;DHT22;27217;51.220;5.308;2022-11-15T02:49:47;11.70;99.90
41481;DHT22;27217;51.220;5.308;2022-11-15T02:52:19;11.90;99.90
41481;DHT22;27217;51.220;5.308;2022-11-15T02:54:56;12.00;99.90
41481;DHT22;27217;51.220;5.308;2022-11-15T03:00:09;11.70;99.90
41481;DHT22;27217;51.220;5.308;2022-11-15T03:05:15;12.00;99.90
41481;DHT22;27217;51.220;5.308;2022-11-15T03:10:20;11.70;99.90
41481;DHT22;27217;51.220;5.308;2022-11-15T03:13:10;11.80;99.90
41481;DHT22;27217;51.220;5.308;2022-11-15T03:15:57;11.80;99.90
41481;DHT22;27217;51.220;5.308;2022-11-15T03:18:44;11.80;99.90
41481;DHT22;27217;51.220;5.308;2022-11-15T03:21:14;12.00;99.90
41481;DHT22;27217;51.220;5.308;2022-11-15T03:23:41;12.00;99.90
41481;DHT22;27217;51.220;5.308;2022-11-15T03:26:11;12.10;99.90
41481;DHT22;27217;51.220;5.308;2022-11-15T03:31:08;12.40;99.90
41481;DHT22;27217;51.220;5.308;2022-11-15T03:33:56;12.40;99.90
41481;DHT22;27217;51.220;5.308;2022-11-15T03:36:25;12.20;99.90
41481;DHT22;27217;51.220;5.308;2022-11-15T03:38:54;12.10;99.90
41481;DHT22;27217;51.220;5.308;2022-11-15T03:41:28;12.30;99.90
41481;DHT22;27217;51.220;5.308;2022-11-15T03:44:04;12.20;99.90
41481;DHT22;27217;51.220;5.308;2022-11-15T03:47:03;12.30;99.90
41481;DHT22;27217;51.220;5.308;2022-11-15T03:49:31;12.50;99.90
41481;DHT22;27217;51.220;5.308;2022-11-15T03:51:59;12.30;99.90
41481;DHT22;27217;51.220;5.308;2022-11-15T03:54:25;12.40;99.90
41481;DHT22;27217;51.220;5.308;2022-11-15T03:56:51;12.60;99.90
41481;DHT22;27217;51.220;5.308;2022-11-15T03:59:16;12.40;99.90
41481;DHT22;27217;51.220;5.308;2022-11-15T04:01:45;12.10;99.90
41481;DHT22;27217;51.220;5.308;2022-11-15T04:04:11;12.00;99.90
41481;DHT22;27217;51.220;5.308;2022-11-15T04:06:37;12.10;99.90
41481;DHT22;27217;51.220;5.308;2022-11-15T04:09:03;12.10;99.90
41481;DHT22;27217;51.220;5.308;2022-11-15T04:11:29;12.00;99.90
41481;DHT22;27217;51.220;5.308;2022-11-15T04:13:55;12.10;99.90
41481;DHT22;27217;51.220;5.308;2022-11-15T04:16:21;11.90;99.90
41481;DHT22;27217;51.220;5.308;2022-11-15T04:18:47;11.70;99.90
41481;DHT22;27217;51.220;5.308;2022-11-15T04:21:33;11.70;99.90
41481;DHT22;27217;51.220;5.308;2022-11-15T04:24:17;11.90;99.90
41481;DHT22;27217;51.220;5.308;2022-11-15T04:26:42;11.80;99.90
41481;DHT22;27217;51.220;5.308;2022-11-15T04:29:09;11.80;99.90
41481;DHT22;27217;51.220;5.308;2022-11-15T04:31:53;11.80;99.90
41481;DHT22;27217;51.220;5.308;2022-11-15T04:34:19;12.10;99.90
41481;DHT22;27217;51.220;5.308;2022-11-15T04:36:44;12.30;99.90
41481;DHT22;27217;51.220;5.308;2022-11-15T04:39:28;12.00;99.90
41481;DHT22;27217;51.220;5.308;2022-11-15T04:41:54;11.90;99.90
41481;DHT22;27217;51.220;5.308;2022-11-15T04:44:20;11.90;99.90
41481;DHT22;27217;51.220;5.308;2022-11-15T04:46:46;11.90;99.90
41481;DHT22;27217;51.220;5.308;2022-11-15T04:49:12;11.90;99.90
41481;DHT22;27217;51.220;5.308;2022-11-15T04:51:41;12.10;99.90
41481;DHT22;27217;51.220;5.308;2022-11-15T04:54:07;12.00;99.90
41481;DHT22;27217;51.220;5.308;2022-11-15T04:56:32;11.90;99.90
41481;DHT22;27217;51.220;5.308;2022-11-15T04:58:58;11.80;99.90
41481;DHT22;27217;51.220;5.308;2022-11-15T05:01:27;11.80;99.90
41481;DHT22;27217;51.220;5.308;2022-11-15T05:03:53;11.70;99.90
41481;DHT22;27217;51.220;5.308;2022-11-15T05:06:37;11.90;99.90
41481;DHT22;27217;51.220;5.308;2022-11-15T05:09:03;11.90;99.90
41481;DHT22;27217;51.220;5.308;2022-11-15T05:11:29;12.00;99.90
41481;DHT22;27217;51.220;5.308;2022-11-15T05:13:55;12.10;99.90
41481;DHT22;27217;51.220;5.308;2022-11-15T05:16:21;12.30;99.90
41481;DHT22;27217;51.220;5.308;2022-11-15T05:18:46;12.50;99.90
41481;DHT22;27217;51.220;5.308;2022-11-15T05:21:14;12.70;99.90
41481;DHT22;27217;51.220;5.308;2022-11-15T05:23:40;12.70;99.90
41481;DHT22;27217;51.220;5.308;2022-11-15T05:26:07;12.20;99.90
41481;DHT22;27217;51.220;5.308;2022-11-15T05:28:34;12.30;99.90
41481;DHT22;27217;51.220;5.308;2022-11-15T05:31:07;12.10;99.90
41481;DHT22;27217;51.220;5.308;2022-11-15T05:33:35;11.90;99.90
41481;DHT22;27217;51.220;5.308;2022-11-15T05:36:12;12.00;99.90
41481;DHT22;27217;51.220;5.308;2022-11-15T05:38:39;12.00;99.90
41481;DHT22;27217;51.220;5.308;2022-11-15T05:41:06;12.00;99.90
41481;DHT22;27217;51.220;5.308;2022-11-15T05:43:35;11.80;99.90
41481;DHT22;27217;51.220;5.308;2022-11-15T05:46:02;11.70;99.90
41481;DHT22;27217;51.220;5.308;2022-11-15T05:48:28;11.80;99.90
41481;DHT22;27217;51.220;5.308;2022-11-15T05:50:55;11.80;99.90
41481;DHT22;27217;51.220;5.308;2022-11-15T05:53:23;11.90;99.90
41481;DHT22;27217;51.220;5.308;2022-11-15T05:55:50;11.80;99.90
41481;DHT22;27217;51.220;5.308;2022-11-15T05:58:17;11.80;99.90
41481;DHT22;27217;51.220;5.308;2022-11-15T06:00:44;11.80;99.90
41481;DHT22;27217;51.220;5.308;2022-11-15T06:03:10;11.70;99.90
41481;DHT22;27217;51.220;5.308;2022-11-15T06:05:36;11.70;99.90
41481;DHT22;27217;51.220;5.308;2022-11-15T06:08:01;11.80;99.90
41481;DHT22;27217;51.220;5.308;2022-11-15T06:10:27;11.90;99.90
41481;DHT22;27217;51.220;5.308;2022-11-15T06:12:57;12.00;99.90
41481;DHT22;27217;51.220;5.308;2022-11-15T06:15:23;12.00;99.90
41481;DHT22;27217;51.220;5.308;2022-11-15T06:17:49;11.80;99.90
41481;DHT22;27217;51.220;5.308;2022-11-15T06:20:15;11.90;99.90
41481;DHT22;27217;51.220;5.308;2022-11-15T06:22:41;11.60;99.90
41481;DHT22;27217;51.220;5.308;2022-11-15T06:25:07;11.40;99.90
41481;DHT22;27217;51.220;5.308;2022-11-15T06:27:33;11.50;99.90
41481;DHT22;27217;51.220;5.308;2022-11-15T06:29:58;11.50;99.90
41481;DHT22;27217;51.220;5.308;2022-11-15T06:32:24;11.40;99.90
41481;DHT22;27217;51.220;5.308;2022-11-15T06:34:50;11.30;99.90
41481;DHT22;27217;51.220;5.308;2022-11-15T06:37:16;11.30;99.90
41481;DHT22;27217;51.220;5.308;2022-11-15T06:39:42;11.30;99.90
41481;DHT22;27217;51.220;5.308;2022-11-15T06:42:08;11.30;99.90
41481;DHT22;27217;51.220;5.308;2022-11-15T06:44:35;11.20;99.90
41481;DHT22;27217;51.220;5.308;2022-11-15T06:47:00;11.50;99.90
41481;DHT22;27217;51.220;5.308;2022-11-15T06:49:26;11.50;99.90
41481;DHT22;27217;51.220;5.308;2022-11-15T06:51:52;11.30;99.90
41481;DHT22;27217;51.220;5.308;2022-11-15T06:54:18;11.20;99.90
41481;DHT22;27217;51.220;5.308;2022-11-15T06:56:43;11.20;99.90
41481;DHT22;27217;51.220;5.308;2022-11-15T06:59:09;11.20;99.90
41481;DHT22;27217;51.220;5.308;2022-11-15T07:01:35;11.40;99.90
41481;DHT22;27217;51.220;5.308;2022-11-15T07:04:02;11.10;99.90
41481;DHT22;27217;51.220;5.308;2022-11-15T07:06:27;11.00;99.90
41481;DHT22;27217;51.220;5.308;2022-11-15T07:08:53;11.10;99.90
41481;DHT22;27217;51.220;5.308;2022-11-15T07:11:19;11.00;99.90
41481;DHT22;27217;51.220;5.308;2022-11-15T07:13:45;11.20;99.90
41481;DHT22;27217;51.220;5.308;2022-11-15T07:16:11;10.90;99.90
41481;DHT22;27217;51.220;5.308;2022-11-15T07:18:40;10.90;99.90
41481;DHT22;27217;51.220;5.308;2022-11-15T07:21:08;10.80;99.90
41481;DHT22;27217;51.220;5.308;2022-11-15T07:23:39;10.80;99.90
41481;DHT22;27217;51.220;5.308;2022-11-15T07:26:06;10.70;99.90
41481;DHT22;27217;51.220;5.308;2022-11-15T07:28:31;11.00;99.90
41481;DHT22;27217;51.220;5.308;2022-11-15T07:30:57;11.00;99.90
41481;DHT22;27217;51.220;5.308;2022-11-15T07:33:23;10.90;99.90
41481;DHT22;27217;51.220;5.308;2022-11-15T07:35:49;10.90;99.90
41481;DHT22;27217;51.220;5.308;2022-11-15T07:38:15;10.70;99.90
41481;DHT22;27217;51.220;5.308;2022-11-15T07:40:41;10.70;99.90
41481;DHT22;27217;51.220;5.308;2022-11-15T07:43:08;10.80;99.90
41481;DHT22;27217;51.220;5.308;2022-11-15T07:45:34;10.60;99.90
41481;DHT22;27217;51.220;5.308;2022-11-15T07:48:05;10.60;99.90
41481;DHT22;27217;51.220;5.308;2022-11-15T07:50:31;10.60;99.90
41481;DHT22;27217;51.220;5.308;2022-11-15T07:52:58;10.50;99.90
41481;DHT22;27217;51.220;5.308;2022-11-15T07:55:25;10.50;99.90
41481;DHT22;27217;51.220;5.308;2022-11-15T07:57:52;10.50;99.90
41481;DHT22;27217;51.220;5.308;2022-11-15T08:00:19;10.50;99.90
41481;DHT22;27217;51.220;5.308;2022-11-15T08:02:45;10.60;99.90
41481;DHT22;27217;51.220;5.308;2022-11-15T08:05:11;10.50;99.90
41481;DHT22;27217;51.220;5.308;2022-11-15T08:07:37;10.60;99.90
41481;DHT22;27217;51.220;5.308;2022-11-15T08:10:04;10.50;99.90
41481;DHT22;27217;51.220;5.308;2022-11-15T08:12:31;10.50;99.90
41481;DHT22;27217;51.220;5.308;2022-11-15T08:14:57;10.40;99.90
41481;DHT22;27217;51.220;5.308;2022-11-15T08:17:23;10.50;99.90
41481;DHT22;27217;51.220;5.308;2022-11-15T08:19:49;10.40;99.90
41481;DHT22;27217;51.220;5.308;2022-11-15T08:22:15;10.50;99.90
41481;DHT22;27217;51.220;5.308;2022-11-15T08:24:41;10.50;99.90
41481;DHT22;27217;51.220;5.308;2022-11-15T08:27:07;10.60;99.90
41481;DHT22;27217;51.220;5.308;2022-11-15T08:29:48;10.70;99.90
41481;DHT22;27217;51.220;5.308;2022-11-15T08:32:14;10.70;99.90
41481;DHT22;27217;51.220;5.308;2022-11-15T08:34:39;10.60;99.90
41481;DHT22;27217;51.220;5.308;2022-11-15T08:37:05;10.60;99.90
41481;DHT22;27217;51.220;5.308;2022-11-15T08:39:34;10.50;99.90
41481;DHT22;27217;51.220;5.308;2022-11-15T08:42:00;10.50;99.90
41481;DHT22;27217;51.220;5.308;2022-11-15T08:44:25;10.50;99.90
41481;DHT22;27217;51.220;5.308;2022-11-15T08:46:51;10.50;99.90
41481;DHT22;27217;51.220;5.308;2022-11-15T08:49:17;10.50;99.90
41481;DHT22;27217;51.220;5.308;2022-11-15T08:51:42;10.50;99.90
41481;DHT22;27217;51.220;5.308;2022-11-15T08:54:08;10.50;99.90
41481;DHT22;27217;51.220;5.308;2022-11-15T08:56:34;10.40;99.90
41481;DHT22;27217;51.220;5.308;2022-11-15T08:59:00;10.40;99.90
41481;DHT22;27217;51.220;5.308;2022-11-15T09:01:25;10.50;99.90
41481;DHT22;27217;51.220;5.308;2022-11-15T09:03:51;10.60;99.90
41481;DHT22;27217;51.220;5.308;2022-11-15T09:06:17;10.80;99.90
41481;DHT22;27217;51.220;5.308;2022-11-15T09:08:43;11.00;99.90
41481;DHT22;27217;51.220;5.308;2022-11-15T09:11:10;11.10;99.90
41481;DHT22;27217;51.220;5.308;2022-11-15T09:13:36;11.00;99.90
41481;DHT22;27217;51.220;5.308;2022-11-15T09:16:03;11.10;99.90
41481;DHT22;27217;51.220;5.308;2022-11-15T09:18:29;11.20;99.90
41481;DHT22;27217;51.220;5.308;2022-11-15T09:20:59;11.20;99.90
41481;DHT22;27217;51.220;5.308;2022-11-15T09:23:26;11.30;99.90
41481;DHT22;27217;51.220;5.308;2022-11-15T09:25:57;11.20;99.90
41481;DHT22;27217;51.220;5.308;2022-11-15T09:28:40;11.20;99.90
41481;DHT22;27217;51.220;5.308;2022-11-15T09:31:10;11.20;99.90
41481;DHT22;27217;51.220;5.308;2022-11-15T09:33:36;11.30;99.90
41481;DHT22;27217;51.220;5.308;2022-11-15T09:36:07;11.20;99.90
41481;DHT22;27217;51.220;5.308;2022-11-15T09:38:33;11.40;99.90
41481;DHT22;27217;51.220;5.308;2022-11-15T09:43:47;11.40;99.90
41481;DHT22;27217;51.220;5.308;2022-11-15T09:49:02;11.60;99.90
41481;DHT22;27217;51.220;5.308;2022-11-15T09:54:11;11.60;99.90
41481;DHT22;27217;51.220;5.308;2022-11-15T09:56:42;11.60;99.90
41481;DHT22;27217;51.220;5.308;2022-11-15T09:59:23;11.80;99.90
41481;DHT22;27217;51.220;5.308;2022-11-15T10:04:36;11.70;99.90
41481;DHT22;27217;51.220;5.308;2022-11-15T10:09:35;11.60;99.90
41481;DHT22;27217;51.220;5.308;2022-11-15T10:12:03;11.70;99.90
41481;DHT22;27217;51.220;5.308;2022-11-15T10:14:29;11.90;99.90
41481;DHT22;27217;51.220;5.308;2022-11-15T10:22:45;12.10;99.90
41481;DHT22;27217;51.220;5.308;2022-11-15T10:25:20;12.40;99.90
41481;DHT22;27217;51.220;5.308;2022-11-15T10:28:12;13.30;99.90
41481;DHT22;27217;51.220;5.308;2022-11-15T10:30:49;14.10;99.90
41481;DHT22;27217;51.220;5.308;2022-11-15T10:41:17;16.10;99.90
41481;DHT22;27217;51.220;5.308;2022-11-15T10:43:43;16.20;99.90
41481;DHT22;27217;51.220;5.308;2022-11-15T10:46:39;15.80;99.90
41481;DHT22;27217;51.220;5.308;2022-11-15T10:49:26;16.50;99.90
41481;DHT22;27217;51.220;5.308;2022-11-15T10:54:38;16.90;99.90
41481;DHT22;27217;51.220;5.308;2022-11-15T10:57:13;16.40;99.90
41481;DHT22;27217;51.220;5.308;2022-11-15T10:59:44;16.20;99.90
41481;DHT22;27217;51.220;5.308;2022-11-15T11:04:52;15.70;99.90
41481;DHT22;27217;51.220;5.308;2022-11-15T11:07:27;15.40;99.90
41481;DHT22;27217;51.220;5.308;2022-11-15T11:10:19;15.00;99.90
41481;DHT22;27217;51.220;5.308;2022-11-15T11:12:43;15.20;99.90
41481;DHT22;27217;51.220;5.308;2022-11-15T11:15:12;15.60;99.90
41481;DHT22;27217;51.220;5.308;2022-11-15T11:23:22;17.30;99.90
41481;DHT22;27217;51.220;5.308;2022-11-15T11:28:42;16.80;99.90
41481;DHT22;27217;51.220;5.308;2022-11-15T11:37:12;15.90;99.90
41481;DHT22;27217;51.220;5.308;2022-11-15T11:50:27;16.10;99.90
41481;DHT22;27217;51.220;5.308;2022-11-15T11:53:12;17.00;99.90
41481;DHT22;27217;51.220;5.308;2022-11-15T11:55:47;17.50;99.90
41481;DHT22;27217;51.220;5.308;2022-11-15T11:58:37;17.70;99.90
41481;DHT22;27217;51.220;5.308;2022-11-15T12:03:49;18.00;99.90
41481;DHT22;27217;51.220;5.308;2022-11-15T12:08:53;18.20;99.90
41481;DHT22;27217;51.220;5.308;2022-11-15T12:11:43;18.00;99.90
41481;DHT22;27217;51.220;5.308;2022-11-15T12:14:33;17.80;99.90
41481;DHT22;27217;51.220;5.308;2022-11-15T12:16:59;17.30;99.90
41481;DHT22;27217;51.220;5.308;2022-11-15T12:19:25;16.60;99.90
41481;DHT22;27217;51.220;5.308;2022-11-15T12:22:04;16.10;99.90
41481;DHT22;27217;51.220;5.308;2022-11-15T12:24:57;16.10;99.90
41481;DHT22;27217;51.220;5.308;2022-11-15T12:27:48;16.10;99.90
41481;DHT22;27217;51.220;5.308;2022-11-15T12:30:17;15.30;99.90
41481;DHT22;27217;51.220;5.308;2022-11-15T12:32:58;14.90;99.90
41481;DHT22;27217;51.220;5.308;2022-11-15T12:35:34;15.00;99.90
41481;DHT22;27217;51.220;5.308;2022-11-15T12:38:00;14.90;99.90
41481;DHT22;27217;51.220;5.308;2022-11-15T12:40:36;14.70;99.90
41481;DHT22;27217;51.220;5.308;2022-11-15T12:43:38;14.80;99.90
41481;DHT22;27217;51.220;5.308;2022-11-15T12:46:10;14.70;99.90
41481;DHT22;27217;51.220;5.308;2022-11-15T12:51:03;14.70;99.90
41481;DHT22;27217;51.220;5.308;2022-11-15T12:53:31;14.60;99.90
41481;DHT22;27217;51.220;5.308;2022-11-15T12:56:17;14.80;99.90
41481;DHT22;27217;51.220;5.308;2022-11-15T12:58:56;14.80;99.90
41481;DHT22;27217;51.220;5.308;2022-11-15T13:12:07;14.70;99.90
41481;DHT22;27217;51.220;5.308;2022-11-15T13:19:46;14.70;99.90
41481;DHT22;27217;51.220;5.308;2022-11-15T13:22:13;14.60;99.90
41481;DHT22;27217;51.220;5.308;2022-11-15T13:24:57;14.50;99.90
41481;DHT22;27217;51.220;5.308;2022-11-15T13:27:24;14.60;99.90
41481;DHT22;27217;51.220;5.308;2022-11-15T13:29:50;14.50;99.90
41481;DHT22;27217;51.220;5.308;2022-11-15T13:32:17;14.60;99.90
41481;DHT22;27217;51.220;5.308;2022-11-15T13:34:45;14.70;99.90
41481;DHT22;27217;51.220;5.308;2022-11-15T13:39:50;14.70;99.90
41481;DHT22;27217;51.220;5.308;2022-11-15T13:42:17;14.70;99.90
41481;DHT22;27217;51.220;5.308;2022-11-15T13:45:01;14.50;99.90
41481;DHT22;27217;51.220;5.308;2022-11-15T13:47:28;14.60;99.90
41481;DHT22;27217;51.220;5.308;2022-11-15T13:49:57;14.70;99.90
41481;DHT22;27217;51.220;5.308;2022-11-15T13:52:27;14.70;99.90
41481;DHT22;27217;51.220;5.308;2022-11-15T13:55:23;14.70;99.90
41481;DHT22;27217;51.220;5.308;2022-11-15T13:58:01;14.60;99.90
41481;DHT22;27217;51.220;5.308;2022-11-15T14:03:21;14.50;99.90
41481;DHT22;27217;51.220;5.308;2022-11-15T14:06:08;14.50;99.90
41481;DHT22;27217;51.220;5.308;2022-11-15T14:08:41;14.60;99.90
41481;DHT22;27217;51.220;5.308;2022-11-15T14:11:08;14.60;99.90
41481;DHT22;27217;51.220;5.308;2022-11-15T14:13:34;14.60;99.90
41481;DHT22;27217;51.220;5.308;2022-11-15T14:16:24;14.50;99.90
41481;DHT22;27217;51.220;5.308;2022-11-15T14:18:57;14.60;99.90
41481;DHT22;27217;51.220;5.308;2022-11-15T14:21:23;14.60;99.90
41481;DHT22;27217;51.220;5.308;2022-11-15T14:23:48;14.60;99.90
41481;DHT22;27217;51.220;5.308;2022-11-15T14:26:33;14.60;99.90
41481;DHT22;27217;51.220;5.308;2022-11-15T14:29:26;14.40;99.90
41481;DHT22;27217;51.220;5.308;2022-11-15T14:31:54;14.30;99.90
41481;DHT22;27217;51.220;5.308;2022-11-15T14:34:34;14.30;99.90
41481;DHT22;27217;51.220;5.308;2022-11-15T14:37:00;14.30;99.90
41481;DHT22;27217;51.220;5.308;2022-11-15T14:39:25;14.40;99.90
41481;DHT22;27217;51.220;5.308;2022-11-15T14:41:51;14.30;99.90
41481;DHT22;27217;51.220;5.308;2022-11-15T14:44:17;14.20;99.90
41481;DHT22;27217;51.220;5.308;2022-11-15T14:46:45;14.20;99.90
41481;DHT22;27217;51.220;5.308;2022-11-15T14:49:11;14.20;99.90
41481;DHT22;27217;51.220;5.308;2022-11-15T14:51:38;14.10;99.90
41481;DHT22;27217;51.220;5.308;2022-11-15T14:54:04;14.00;99.90
41481;DHT22;27217;51.220;5.308;2022-11-15T14:56:30;14.10;99.90
41481;DHT22;27217;51.220;5.308;2022-11-15T14:58:56;14.30;99.90
41481;DHT22;27217;51.220;5.308;2022-11-15T15:01:25;14.20;99.90
41481;DHT22;27217;51.220;5.308;2022-11-15T15:03:52;14.10;99.90
41481;DHT22;27217;51.220;5.308;2022-11-15T15:06:19;14.10;99.90
41481;DHT22;27217;51.220;5.308;2022-11-15T15:08:45;14.10;99.90
41481;DHT22;27217;51.220;5.308;2022-11-15T15:11:25;14.00;99.90
41481;DHT22;27217;51.220;5.308;2022-11-15T15:13:54;13.90;99.90
41481;DHT22;27217;51.220;5.308;2022-11-15T15:16:23;14.00;99.90
41481;DHT22;27217;51.220;5.308;2022-11-15T15:18:49;14.00;99.90
41481;DHT22;27217;51.220;5.308;2022-11-15T15:21:23;14.00;99.90
41481;DHT22;27217;51.220;5.308;2022-11-15T15:23:51;14.10;99.90
41481;DHT22;27217;51.220;5.308;2022-11-15T15:26:17;14.00;99.90
41481;DHT22;27217;51.220;5.308;2022-11-15T15:28:46;13.80;99.90
41481;DHT22;27217;51.220;5.308;2022-11-15T15:31:14;14.00;99.90
41481;DHT22;27217;51.220;5.308;2022-11-15T15:33:40;14.00;99.90
41481;DHT22;27217;51.220;5.308;2022-11-15T15:36:11;14.00;99.90
41481;DHT22;27217;51.220;5.308;2022-11-15T15:38:37;14.10;99.90
41481;DHT22;27217;51.220;5.308;2022-11-15T15:41:11;14.10;99.90
41481;DHT22;27217;51.220;5.308;2022-11-15T15:43:37;14.00;99.90
41481;DHT22;27217;51.220;5.308;2022-11-15T15:46:03;14.00;99.90
41481;DHT22;27217;51.220;5.308;2022-11-15T15:48:29;13.80;99.90
41481;DHT22;27217;51.220;5.308;2022-11-15T15:50:54;13.90;99.90
41481;DHT22;27217;51.220;5.308;2022-11-15T15:53:20;13.80;99.90
41481;DHT22;27217;51.220;5.308;2022-11-15T15:55:46;13.70;99.90
41481;DHT22;27217;51.220;5.308;2022-11-15T15:58:12;13.70;99.90
41481;DHT22;27217;51.220;5.308;2022-11-15T16:00:38;13.70;99.90
41481;DHT22;27217;51.220;5.308;2022-11-15T16:03:04;13.60;99.90
41481;DHT22;27217;51.220;5.308;2022-11-15T16:05:29;13.40;99.90
41481;DHT22;27217;51.220;5.308;2022-11-15T16:07:55;13.40;99.90
41481;DHT22;27217;51.220;5.308;2022-11-15T16:10:26;13.30;99.90
41481;DHT22;27217;51.220;5.308;2022-11-15T16:12:54;13.30;99.90
41481;DHT22;27217;51.220;5.308;2022-11-15T16:15:21;13.10;99.90
41481;DHT22;27217;51.220;5.308;2022-11-15T16:17:53;13.00;99.90
41481;DHT22;27217;51.220;5.308;2022-11-15T16:23:04;13.00;99.90
41481;DHT22;27217;51.220;5.308;2022-11-15T16:25:39;12.90;99.90
41481;DHT22;27217;51.220;5.308;2022-11-15T16:28:32;12.90;99.90
41481;DHT22;27217;51.220;5.308;2022-11-15T16:31:08;12.70;99.90
41481;DHT22;27217;51.220;5.308;2022-11-15T16:33:34;12.60;99.90
41481;DHT22;27217;51.220;5.308;2022-11-15T16:36:00;12.60;99.90
41481;DHT22;27217;51.220;5.308;2022-11-15T16:38:26;12.50;99.90
41481;DHT22;27217;51.220;5.308;2022-11-15T16:40:52;12.50;99.90
41481;DHT22;27217;51.220;5.308;2022-11-15T16:43:18;12.50;99.90
41481;DHT22;27217;51.220;5.308;2022-11-15T16:45:43;12.50;99.90
41481;DHT22;27217;51.220;5.308;2022-11-15T16:48:25;12.50;99.90
41481;DHT22;27217;51.220;5.308;2022-11-15T16:50:56;12.50;99.90
41481;DHT22;27217;51.220;5.308;2022-11-15T16:53:21;12.50;99.90
41481;DHT22;27217;51.220;5.308;2022-11-15T16:55:53;12.40;99.90
41481;DHT22;27217;51.220;5.308;2022-11-15T16:58:19;12.30;99.90
41481;DHT22;27217;51.220;5.308;2022-11-15T17:00:52;12.30;99.90
41481;DHT22;27217;51.220;5.308;2022-11-15T17:03:19;12.30;99.90
41481;DHT22;27217;51.220;5.308;2022-11-15T17:05:44;12.30;99.90
41481;DHT22;27217;51.220;5.308;2022-11-15T17:08:11;12.20;99.90
41481;DHT22;27217;51.220;5.308;2022-11-15T17:10:38;12.20;99.90
41481;DHT22;27217;51.220;5.308;2022-11-15T17:13:16;12.20;99.90
41481;DHT22;27217;51.220;5.308;2022-11-15T17:15:42;12.20;99.90
41481;DHT22;27217;51.220;5.308;2022-11-15T17:18:11;12.10;99.90
41481;DHT22;27217;51.220;5.308;2022-11-15T17:20:39;12.10;99.90
41481;DHT22;27217;51.220;5.308;2022-11-15T17:23:05;12.10;99.90
41481;DHT22;27217;51.220;5.308;2022-11-15T17:25:36;12.00;99.90
41481;DHT22;27217;51.220;5.308;2022-11-15T17:28:02;11.90;99.90
41481;DHT22;27217;51.220;5.308;2022-11-15T17:30:28;11.90;99.90
41481;DHT22;27217;51.220;5.308;2022-11-15T17:32:53;11.80;99.90
41481;DHT22;27217;51.220;5.308;2022-11-15T17:35:20;11.80;99.90
41481;DHT22;27217;51.220;5.308;2022-11-15T17:37:47;11.80;99.90